sensor_id;sensor_type;location;lat;lon;timestamp;pressure;altitude;pressure_sealevel;temperature;humidity
8543;BME280;4309;42.658;23.380;2023-02-22T00:00:30;94745.63;;;8.11;50.93
8543;BME280;4309;42.658;23.380;2023-02-22T00:01:13;94746.66;;;8.10;51.68
8543;BME280;4309;42.658;23.380;2023-02-22T00:01:53;94752.66;;;8.17;51.54
8543;BME280;4309;42.658;23.380;2023-02-22T00:02:41;94747.84;;;8.27;50.87
8543;BME280;4309;42.658;23.380;2023-02-22T00:03:24;94745.03;;;8.28;51.22
8543;BME280;4309;42.658;23.380;2023-02-22T00:03:57;94745.63;;;8.30;51.70
8543;BME280;4309;42.658;23.380;2023-02-22T00:04:29;94747.41;;;8.36;50.78
8543;BME280;4309;42.658;23.380;2023-02-22T00:05:00;94749.03;;;8.37;50.95
8543;BME280;4309;42.658;23.380;2023-02-22T00:05:33;94742.63;;;8.40;50.06
8543;BME280;4309;42.658;23.380;2023-02-22T00:06:06;94748.84;;;8.39;50.53
8543;BME280;4309;42.658;23.380;2023-02-22T00:06:37;94747.22;;;8.38;50.63
8543;BME280;4309;42.658;23.380;2023-02-22T00:07:10;94745.41;;;8.38;51.39
8543;BME280;4309;42.658;23.380;2023-02-22T00:07:46;94747.22;;;8.38;51.20
8543;BME280;4309;42.658;23.380;2023-02-22T00:08:20;94747.41;;;8.36;50.54
8543;BME280;4309;42.658;23.380;2023-02-22T00:08:53;94737.81;;;8.37;50.74
8543;BME280;4309;42.658;23.380;2023-02-22T00:09:26;94747.22;;;8.38;50.67
8543;BME280;4309;42.658;23.380;2023-02-22T00:09:58;94750.00;;;8.43;51.42
8543;BME280;4309;42.658;23.380;2023-02-22T00:10:31;94743.41;;;8.40;51.19
8543;BME280;4309;42.658;23.380;2023-02-22T00:11:06;94743.03;;;8.37;50.47
8543;BME280;4309;42.658;23.380;2023-02-22T00:11:44;94743.03;;;8.37;50.55
8543;BME280;4309;42.658;23.380;2023-02-22T00:12:16;94746.03;;;8.34;50.64
8543;BME280;4309;42.658;23.380;2023-02-22T00:12:51;94750.22;;;8.35;50.79
8543;BME280;4309;42.658;23.380;2023-02-22T00:13:23;94741.59;;;8.34;50.62
8543;BME280;4309;42.658;23.380;2023-02-22T00:13:58;94740.22;;;8.38;50.81
8543;BME280;4309;42.658;23.380;2023-02-22T00:14:30;94745.22;;;8.33;51.26
8543;BME280;4309;42.658;23.380;2023-02-22T00:15:03;94744.41;;;8.39;50.61
8543;BME280;4309;42.658;23.380;2023-02-22T00:15:36;94745.97;;;8.47;50.24
8543;BME280;4309;42.658;23.380;2023-02-22T00:16:18;94744.47;;;8.26;51.16
8543;BME280;4309;42.658;23.380;2023-02-22T00:16:51;94751.44;;;8.32;50.56
8543;BME280;4309;42.658;23.380;2023-02-22T00:17:26;94741.22;;;8.37;51.57
8543;BME280;4309;42.658;23.380;2023-02-22T00:18:01;94750.44;;;8.40;51.41
8543;BME280;4309;42.658;23.380;2023-02-22T00:18:39;94748.03;;;8.32;50.53
8543;BME280;4309;42.658;23.380;2023-02-22T00:19:10;94751.44;;;8.32;50.67
8543;BME280;4309;42.658;23.380;2023-02-22T00:19:42;94742.41;;;8.35;51.02
8543;BME280;4309;42.658;23.380;2023-02-22T00:20:15;94754.63;;;8.34;51.28
8543;BME280;4309;42.658;23.380;2023-02-22T00:20:52;94744.63;;;8.38;51.28
8543;BME280;4309;42.658;23.380;2023-02-22T00:21:24;94748.66;;;8.34;50.48
8543;BME280;4309;42.658;23.380;2023-02-22T00:21:56;94745.03;;;8.35;50.48
8543;BME280;4309;42.658;23.380;2023-02-22T00:22:32;94750.22;;;8.35;51.39
8543;BME280;4309;42.658;23.380;2023-02-22T00:23:05;94746.44;;;8.31;50.80
8543;BME280;4309;42.658;23.380;2023-02-22T00:23:39;94749.84;;;8.31;51.20
8543;BME280;4309;42.658;23.380;2023-02-22T00:24:17;94748.63;;;8.40;51.01
8543;BME280;4309;42.658;23.380;2023-02-22T00:24:53;94747.03;;;8.33;51.13
8543;BME280;4309;42.658;23.380;2023-02-22T00:25:27;94746.81;;;8.34;51.58
8543;BME280;4309;42.658;23.380;2023-02-22T00:26:01;94746.59;;;8.36;50.69
8543;BME280;4309;42.658;23.380;2023-02-22T00:26:34;94743.41;;;8.40;51.35
8543;BME280;4309;42.658;23.380;2023-02-22T00:27:06;94751.03;;;8.42;50.57
8543;BME280;4309;42.658;23.380;2023-02-22T00:27:38;94739.78;;;8.48;50.71
8543;BME280;4309;42.658;23.380;2023-02-22T00:28:14;94737.78;;;8.50;50.53
8543;BME280;4309;42.658;23.380;2023-02-22T00:28:47;94735.75;;;8.45;51.08
8543;BME280;4309;42.658;23.380;2023-02-22T00:29:20;94740.00;;;8.46;50.60
8543;BME280;4309;42.658;23.380;2023-02-22T00:29:52;94731.34;;;8.52;51.33
8543;BME280;4309;42.658;23.380;2023-02-22T00:30:28;94730.75;;;8.50;50.60
8543;BME280;4309;42.658;23.380;2023-02-22T00:31:03;94734.75;;;8.53;50.74
8543;BME280;4309;42.658;23.380;2023-02-22T00:31:37;94735.72;;;8.58;50.28
8543;BME280;4309;42.658;23.380;2023-02-22T00:32:09;94733.13;;;8.58;50.79
8543;BME280;4309;42.658;23.380;2023-02-22T00:32:42;94735.19;;;8.50;50.90
8543;BME280;4309;42.658;23.380;2023-02-22T00:33:15;94732.16;;;8.46;50.56
8543;BME280;4309;42.658;23.380;2023-02-22T00:33:49;94729.75;;;8.51;50.26
8543;BME280;4309;42.658;23.380;2023-02-22T00:34:22;94731.56;;;8.51;50.96
8543;BME280;4309;42.658;23.380;2023-02-22T00:34:55;94736.75;;;8.51;51.28
8543;BME280;4309;42.658;23.380;2023-02-22T00:35:28;94742.19;;;8.49;50.63
8543;BME280;4309;42.658;23.380;2023-02-22T00:36:01;94745.00;;;8.48;51.11
8543;BME280;4309;42.658;23.380;2023-02-22T00:36:33;94737.78;;;8.50;51.02
8543;BME280;4309;42.658;23.380;2023-02-22T00:37:06;94739.56;;;8.49;50.83
8543;BME280;4309;42.658;23.380;2023-02-22T00:37:38;94740.38;;;8.50;51.09
8543;BME280;4309;42.658;23.380;2023-02-22T00:38:16;94738.00;;;8.48;50.88
8543;BME280;4309;42.658;23.380;2023-02-22T00:38:50;94734.78;;;8.46;50.94
8543;BME280;4309;42.658;23.380;2023-02-22T00:39:22;94734.56;;;8.48;51.56
8543;BME280;4309;42.658;23.380;2023-02-22T00:39:54;94737.38;;;8.46;51.39
8543;BME280;4309;42.658;23.380;2023-02-22T00:40:28;94732.16;;;8.46;51.80
8543;BME280;4309;42.658;23.380;2023-02-22T00:41:00;94731.38;;;8.46;51.30
8543;BME280;4309;42.658;23.380;2023-02-22T00:41:31;94726.56;;;8.43;51.34
8543;BME280;4309;42.658;23.380;2023-02-22T00:42:05;94731.38;;;8.46;51.18
8543;BME280;4309;42.658;23.380;2023-02-22T00:42:38;94727.59;;;8.42;51.15
8543;BME280;4309;42.658;23.380;2023-02-22T00:43:10;94731.38;;;8.39;50.94
8543;BME280;4309;42.658;23.380;2023-02-22T00:43:42;94736.19;;;8.36;50.95
8543;BME280;4309;42.658;23.380;2023-02-22T00:44:15;94724.78;;;8.43;51.47
8543;BME280;4309;42.658;23.380;2023-02-22T00:44:46;94727.16;;;8.45;50.78
8543;BME280;4309;42.658;23.380;2023-02-22T00:45:20;94720.78;;;8.34;51.23
8543;BME280;4309;42.658;23.380;2023-02-22T00:45:52;94722.78;;;8.39;50.62
8543;BME280;4309;42.658;23.380;2023-02-22T00:46:25;94728.00;;;8.39;50.86
8543;BME280;4309;42.658;23.380;2023-02-22T00:46:57;94728.16;;;8.44;51.29
8543;BME280;4309;42.658;23.380;2023-02-22T00:47:32;94717.31;;;8.47;50.58
8543;BME280;4309;42.658;23.380;2023-02-22T00:48:09;94717.53;;;8.45;51.13
8543;BME280;4309;42.658;23.380;2023-02-22T00:48:41;94718.13;;;8.47;50.83
8543;BME280;4309;42.658;23.380;2023-02-22T00:49:15;94721.34;;;8.49;50.89
8543;BME280;4309;42.658;23.380;2023-02-22T00:49:48;94716.13;;;8.49;51.08
8543;BME280;4309;42.658;23.380;2023-02-22T00:50:21;94714.28;;;8.56;50.78
8543;BME280;4309;42.658;23.380;2023-02-22T00:50:53;94710.09;;;8.55;50.68
8543;BME280;4309;42.658;23.380;2023-02-22T00:51:26;94714.69;;;8.60;50.71
8543;BME280;4309;42.658;23.380;2023-02-22T00:51:59;94714.69;;;8.60;50.85
8543;BME280;4309;42.658;23.380;2023-02-22T00:52:31;94710.72;;;8.51;50.30
8543;BME280;4309;42.658;23.380;2023-02-22T00:53:04;94710.91;;;8.56;50.93
8543;BME280;4309;42.658;23.380;2023-02-22T00:53:36;94714.06;;;8.58;51.26
8543;BME280;4309;42.658;23.380;2023-02-22T00:54:09;94707.47;;;8.55;51.20
8543;BME280;4309;42.658;23.380;2023-02-22T00:54:42;94708.88;;;8.58;50.84
8543;BME280;4309;42.658;23.380;2023-02-22T00:55:16;94714.88;;;8.58;50.92
8543;BME280;4309;42.658;23.380;2023-02-22T00:55:50;94712.28;;;8.58;51.16
8543;BME280;4309;42.658;23.380;2023-02-22T00:56:22;94719.06;;;8.59;50.64
8543;BME280;4309;42.658;23.380;2023-02-22T00:56:54;94708.47;;;8.61;50.25
8543;BME280;4309;42.658;23.380;2023-02-22T00:57:26;94713.28;;;8.64;50.63
8543;BME280;4309;42.658;23.380;2023-02-22T00:58:00;94709.84;;;8.63;50.30
8543;BME280;4309;42.658;23.380;2023-02-22T00:58:32;94701.84;;;8.65;50.67
8543;BME280;4309;42.658;23.380;2023-02-22T00:59:05;94704.84;;;8.68;50.84
8543;BME280;4309;42.658;23.380;2023-02-22T00:59:38;94711.03;;;8.67;50.26
8543;BME280;4309;42.658;23.380;2023-02-22T01:00:15;94710.63;;;8.70;49.93
8543;BME280;4309;42.658;23.380;2023-02-22T01:00:49;94705.00;;;8.73;50.30
8543;BME280;4309;42.658;23.380;2023-02-22T01:01:21;94706.38;;;8.76;50.42
8543;BME280;4309;42.658;23.380;2023-02-22T01:01:54;94705.78;;;8.74;50.68
8543;BME280;4309;42.658;23.380;2023-02-22T01:02:27;94706.00;;;8.72;50.97
8543;BME280;4309;42.658;23.380;2023-02-22T01:02:59;94712.47;;;8.57;50.60
8543;BME280;4309;42.658;23.380;2023-02-22T01:03:31;94703.25;;;8.61;50.37
8543;BME280;4309;42.658;23.380;2023-02-22T01:04:06;94712.06;;;8.60;50.75
8543;BME280;4309;42.658;23.380;2023-02-22T01:04:39;94709.47;;;8.60;51.15
8543;BME280;4309;42.658;23.380;2023-02-22T01:05:12;94702.66;;;8.59;51.08
8543;BME280;4309;42.658;23.380;2023-02-22T01:05:46;94696.84;;;8.57;51.21
8543;BME280;4309;42.658;23.380;2023-02-22T01:06:19;94698.84;;;8.55;51.36
8543;BME280;4309;42.658;23.380;2023-02-22T01:06:51;94695.69;;;8.53;51.27
8543;BME280;4309;42.658;23.380;2023-02-22T01:07:24;94695.88;;;8.51;51.28
8543;BME280;4309;42.658;23.380;2023-02-22T01:07:57;94704.28;;;8.53;50.81
8543;BME280;4309;42.658;23.380;2023-02-22T01:08:29;94703.28;;;8.54;51.67
8543;BME280;4309;42.658;23.380;2023-02-22T01:09:03;94701.66;;;8.53;51.26
8543;BME280;4309;42.658;23.380;2023-02-22T01:09:35;94707.09;;;8.52;51.33
8543;BME280;4309;42.658;23.380;2023-02-22T01:10:09;94701.31;;;8.50;51.80
8543;BME280;4309;42.658;23.380;2023-02-22T01:10:42;94705.31;;;8.46;51.52
8543;BME280;4309;42.658;23.380;2023-02-22T01:11:15;94701.91;;;8.45;51.35
8543;BME280;4309;42.658;23.380;2023-02-22T01:11:51;94703.72;;;8.45;52.06
8543;BME280;4309;42.658;23.380;2023-02-22T01:12:25;94698.97;;;8.29;51.66
8543;BME280;4309;42.658;23.380;2023-02-22T01:12:59;94696.97;;;8.31;51.93
8543;BME280;4309;42.658;23.380;2023-02-22T01:13:35;94696.97;;;8.31;52.20
8543;BME280;4309;42.658;23.380;2023-02-22T01:14:07;94695.94;;;8.32;51.69
8543;BME280;4309;42.658;23.380;2023-02-22T01:14:40;94695.13;;;8.38;51.60
8543;BME280;4309;42.658;23.380;2023-02-22T01:15:14;94691.91;;;8.36;51.13
8543;BME280;4309;42.658;23.380;2023-02-22T01:15:46;94700.75;;;8.35;51.43
8543;BME280;4309;42.658;23.380;2023-02-22T01:16:18;94698.53;;;8.32;51.50
8543;BME280;4309;42.658;23.380;2023-02-22T01:16:51;94707.59;;;8.29;51.45
8543;BME280;4309;42.658;23.380;2023-02-22T01:17:25;94693.75;;;8.29;51.16
8543;BME280;4309;42.658;23.380;2023-02-22T01:17:58;94699.78;;;8.23;52.04
8543;BME280;4309;42.658;23.380;2023-02-22T01:18:30;94695.53;;;8.28;51.64
8543;BME280;4309;42.658;23.380;2023-02-22T01:19:03;94691.34;;;8.27;51.65
8543;BME280;4309;42.658;23.380;2023-02-22T01:19:36;94702.38;;;8.23;52.18
8543;BME280;4309;42.658;23.380;2023-02-22T01:20:10;94695.94;;;8.19;52.42
8543;BME280;4309;42.658;23.380;2023-02-22T01:20:44;94693.34;;;8.12;52.95
8543;BME280;4309;42.658;23.380;2023-02-22T01:21:18;94694.56;;;8.10;52.31
8543;BME280;4309;42.658;23.380;2023-02-22T01:21:51;94697.59;;;8.07;53.05
8543;BME280;4309;42.658;23.380;2023-02-22T01:22:26;94694.56;;;8.03;52.26
8543;BME280;4309;42.658;23.380;2023-02-22T01:23:00;94701.00;;;8.01;52.80
8543;BME280;4309;42.658;23.380;2023-02-22T01:23:34;94694.38;;;7.98;52.24
8543;BME280;4309;42.658;23.380;2023-02-22T01:24:06;94694.38;;;7.98;52.39
8543;BME280;4309;42.658;23.380;2023-02-22T01:24:38;94691.41;;;8.01;53.22
8543;BME280;4309;42.658;23.380;2023-02-22T01:25:15;94690.59;;;8.01;52.63
8543;BME280;4309;42.658;23.380;2023-02-22T01:25:48;94689.00;;;7.93;53.05
8543;BME280;4309;42.658;23.380;2023-02-22T01:26:19;94684.78;;;7.92;52.33
8543;BME280;4309;42.658;23.380;2023-02-22T01:26:51;94686.81;;;7.90;52.48
8543;BME280;4309;42.658;23.380;2023-02-22T01:27:24;94687.03;;;7.88;53.28
8543;BME280;4309;42.658;23.380;2023-02-22T01:27:57;94682.19;;;7.85;52.49
8543;BME280;4309;42.658;23.380;2023-02-22T01:28:29;94689.78;;;7.93;53.05
8543;BME280;4309;42.658;23.380;2023-02-22T01:29:02;94690.41;;;7.89;52.56
8543;BME280;4309;42.658;23.380;2023-02-22T01:29:34;94686.41;;;7.86;53.00
8543;BME280;4309;42.658;23.380;2023-02-22T01:30:09;94691.63;;;7.86;52.68
8543;BME280;4309;42.658;23.380;2023-02-22T01:30:43;94691.63;;;7.86;53.15
8543;BME280;4309;42.658;23.380;2023-02-22T01:31:15;94684.59;;;7.87;52.67
8543;BME280;4309;42.658;23.380;2023-02-22T01:31:51;94691.22;;;7.89;53.09
8543;BME280;4309;42.658;23.380;2023-02-22T01:32:25;94691.00;;;7.91;53.57
8543;BME280;4309;42.658;23.380;2023-02-22T01:32:57;94686.22;;;7.88;52.70
8543;BME280;4309;42.658;23.380;2023-02-22T01:33:30;94685.19;;;7.96;52.84
8543;BME280;4309;42.658;23.380;2023-02-22T01:34:02;94686.78;;;7.97;52.82
8543;BME280;4309;42.658;23.380;2023-02-22T01:34:34;94693.59;;;7.98;52.75
8543;BME280;4309;42.658;23.380;2023-02-22T01:35:10;94693.41;;;7.93;53.09
8543;BME280;4309;42.658;23.380;2023-02-22T01:35:44;94691.19;;;7.96;53.14
8543;BME280;4309;42.658;23.380;2023-02-22T01:36:16;94682.19;;;7.99;52.38
8543;BME280;4309;42.658;23.380;2023-02-22T01:36:49;94683.19;;;7.98;52.07
8543;BME280;4309;42.658;23.380;2023-02-22T01:37:21;94684.38;;;8.02;52.31
8543;BME280;4309;42.658;23.380;2023-02-22T01:37:52;94685.59;;;7.99;52.16
8543;BME280;4309;42.658;23.380;2023-02-22T01:38:25;94689.38;;;7.97;51.16
8543;BME280;4309;42.658;23.380;2023-02-22T01:38:57;94690.41;;;7.96;51.34
8543;BME280;4309;42.658;23.380;2023-02-22T01:39:29;94687.78;;;8.02;52.69
8543;BME280;4309;42.658;23.380;2023-02-22T01:40:03;94691.41;;;8.01;52.44
8543;BME280;4309;42.658;23.380;2023-02-22T01:40:39;94687.38;;;7.99;51.38
8543;BME280;4309;42.658;23.380;2023-02-22T01:41:12;94690.41;;;7.96;51.41
8543;BME280;4309;42.658;23.380;2023-02-22T01:41:44;94685.78;;;7.98;51.93
8543;BME280;4309;42.658;23.380;2023-02-22T01:42:18;94692.59;;;7.99;50.82
8543;BME280;4309;42.658;23.380;2023-02-22T01:42:51;94689.41;;;7.90;51.28
8543;BME280;4309;42.658;23.380;2023-02-22T01:43:26;94697.03;;;7.85;51.25
8543;BME280;4309;42.658;23.380;2023-02-22T01:44:16;94691.81;;;7.92;51.47
8543;BME280;4309;42.658;23.380;2023-02-22T01:46:00;94694.84;;;7.82;51.74
8543;BME280;4309;42.658;23.380;2023-02-22T01:46:33;94689.22;;;7.85;52.14
8543;BME280;4309;42.658;23.380;2023-02-22T01:47:06;94693.00;;;7.82;52.66
8543;BME280;4309;42.658;23.380;2023-02-22T01:47:39;94692.63;;;7.72;53.24
8543;BME280;4309;42.658;23.380;2023-02-22T01:48:16;94703.47;;;7.69;54.22
8543;BME280;4309;42.658;23.380;2023-02-22T01:48:54;94691.06;;;7.65;54.19
8543;BME280;4309;42.658;23.380;2023-02-22T01:49:29;94696.84;;;7.60;53.85
8543;BME280;4309;42.658;23.380;2023-02-22T01:50:06;94692.03;;;7.57;53.70
8543;BME280;4309;42.658;23.380;2023-02-22T01:50:45;94692.84;;;7.51;54.52
8543;BME280;4309;42.658;23.380;2023-02-22T01:51:20;94693.84;;;7.44;54.23
8543;BME280;4309;42.658;23.380;2023-02-22T01:51:56;94693.63;;;7.39;53.64
8543;BME280;4309;42.658;23.380;2023-02-22T01:52:29;94691.03;;;7.19;53.69
8543;BME280;4309;42.658;23.380;2023-02-22T01:53:00;94699.03;;;7.11;54.20
8543;BME280;4309;42.658;23.380;2023-02-22T01:53:39;94696.81;;;7.15;55.12
8543;BME280;4309;42.658;23.380;2023-02-22T01:54:15;94698.22;;;7.17;55.06
8543;BME280;4309;42.658;23.380;2023-02-22T01:54:50;94696.44;;;7.18;54.96
8543;BME280;4309;42.658;23.380;2023-02-22T01:55:24;94699.84;;;7.25;54.99
8543;BME280;4309;42.658;23.380;2023-02-22T01:55:58;94696.44;;;7.31;55.02
8543;BME280;4309;42.658;23.380;2023-02-22T01:56:33;94691.66;;;7.34;54.06
8543;BME280;4309;42.658;23.380;2023-02-22T01:57:17;94694.03;;;7.29;54.50
8543;BME280;4309;42.658;23.380;2023-02-22T01:57:51;94698.47;;;7.29;53.82
8543;BME280;4309;42.658;23.380;2023-02-22T01:58:23;94696.84;;;7.28;54.67
8543;BME280;4309;42.658;23.380;2023-02-22T01:58:58;94697.22;;;7.25;54.27
8543;BME280;4309;42.658;23.380;2023-02-22T01:59:35;94697.03;;;7.26;54.42
8543;BME280;4309;42.658;23.380;2023-02-22T02:00:10;94686.22;;;7.29;54.37
8543;BME280;4309;42.658;23.380;2023-02-22T02:00:43;94701.84;;;7.29;54.30
8543;BME280;4309;42.658;23.380;2023-02-22T02:01:17;94699.63;;;7.26;54.38
8543;BME280;4309;42.658;23.380;2023-02-22T02:01:50;94692.22;;;7.23;54.51
8543;BME280;4309;42.658;23.380;2023-02-22T02:02:23;94694.66;;;7.31;54.48
8543;BME280;4309;42.658;23.380;2023-02-22T02:03:00;94686.22;;;7.29;54.34
8543;BME280;4309;42.658;23.380;2023-02-22T02:03:36;94687.44;;;7.27;55.25
8543;BME280;4309;42.658;23.380;2023-02-22T02:04:12;94692.22;;;7.23;54.45
8543;BME280;4309;42.658;23.380;2023-02-22T02:04:45;94696.03;;;7.21;54.32
8543;BME280;4309;42.658;23.380;2023-02-22T02:05:18;94704.44;;;7.23;54.35
8543;BME280;4309;42.658;23.380;2023-02-22T02:05:51;94699.44;;;7.21;53.92
8543;BME280;4309;42.658;23.380;2023-02-22T02:06:23;94699.44;;;7.21;54.91
8543;BME280;4309;42.658;23.380;2023-02-22T02:07:00;94694.00;;;7.16;55.34
8543;BME280;4309;42.658;23.380;2023-02-22T02:07:35;94691.63;;;7.21;55.71
8543;BME280;4309;42.658;23.380;2023-02-22T02:08:13;94701.66;;;7.18;55.52
8543;BME280;4309;42.658;23.380;2023-02-22T02:08:53;94697.44;;;7.17;55.53
8543;BME280;4309;42.658;23.380;2023-02-22T02:09:30;94704.22;;;7.11;55.12
8543;BME280;4309;42.658;23.380;2023-02-22T02:10:09;94692.81;;;7.06;55.13
8543;BME280;4309;42.658;23.380;2023-02-22T02:10:45;94702.59;;;6.97;54.63
8543;BME280;4309;42.658;23.380;2023-02-22T02:11:20;94700.38;;;6.88;55.89
8543;BME280;4309;42.658;23.380;2023-02-22T02:11:57;94703.94;;;6.80;55.09
8543;BME280;4309;42.658;23.380;2023-02-22T02:12:33;94702.19;;;6.87;56.13
8543;BME280;4309;42.658;23.380;2023-02-22T02:13:07;94700.38;;;6.88;56.05
8543;BME280;4309;42.658;23.380;2023-02-22T02:13:39;94699.78;;;6.86;55.90
8543;BME280;4309;42.658;23.380;2023-02-22T02:14:13;94697.19;;;6.92;55.80
8543;BME280;4309;42.658;23.380;2023-02-22T02:14:44;94698.19;;;6.91;56.80
8543;BME280;4309;42.658;23.380;2023-02-22T02:15:19;94694.59;;;6.92;56.69
8543;BME280;4309;42.658;23.380;2023-02-22T02:15:53;94701.59;;;6.92;55.86
8543;BME280;4309;42.658;23.380;2023-02-22T02:16:34;94704.56;;;6.89;56.19
8543;BME280;4309;42.658;23.380;2023-02-22T02:17:11;94699.56;;;6.87;56.93
8543;BME280;4309;42.658;23.380;2023-02-22T02:17:44;94704.56;;;6.89;55.46
8543;BME280;4309;42.658;23.380;2023-02-22T02:18:16;94705.41;;;6.96;56.34
8543;BME280;4309;42.658;23.380;2023-02-22T02:18:48;94704.59;;;6.95;55.43
8543;BME280;4309;42.658;23.380;2023-02-22T02:20:16;94704.19;;;6.92;55.25
8543;BME280;4309;42.658;23.380;2023-02-22T02:22:08;94709.16;;;6.74;56.75
8543;BME280;4309;42.658;23.380;2023-02-22T02:22:48;94704.34;;;6.71;57.14
8543;BME280;4309;42.658;23.380;2023-02-22T02:23:43;94709.72;;;6.63;57.38
8543;BME280;4309;42.658;23.380;2023-02-22T02:24:49;94705.09;;;6.65;56.43
8543;BME280;4309;42.658;23.380;2023-02-22T02:25:57;94703.28;;;6.59;56.33
8543;BME280;4309;42.658;23.380;2023-02-22T02:28:02;94712.44;;;6.48;57.76
8543;BME280;4309;42.658;23.380;2023-02-22T02:29:03;94709.03;;;6.48;57.72
8543;BME280;4309;42.658;23.380;2023-02-22T02:31:32;94705.47;;;6.49;57.96
8543;BME280;4309;42.658;23.380;2023-02-22T02:32:32;94711.59;;;6.41;56.99
8543;BME280;4309;42.658;23.380;2023-02-22T02:33:11;94710.44;;;6.44;57.92
8543;BME280;4309;42.658;23.380;2023-02-22T02:33:50;94712.81;;;6.39;58.32
8543;BME280;4309;42.658;23.380;2023-02-22T02:34:30;94714.81;;;6.43;57.16
8543;BME280;4309;42.658;23.380;2023-02-22T02:35:08;94715.81;;;6.42;58.53
8543;BME280;4309;42.658;23.380;2023-02-22T02:35:50;94716.59;;;6.43;57.57
8543;BME280;4309;42.658;23.380;2023-02-22T02:36:29;94712.00;;;6.38;57.60
8543;BME280;4309;42.658;23.380;2023-02-22T02:37:07;94707.84;;;6.44;58.09
8543;BME280;4309;42.658;23.380;2023-02-22T02:37:47;94711.19;;;6.31;58.22
8543;BME280;4309;42.658;23.380;2023-02-22T02:38:30;94714.00;;;6.36;57.63
8543;BME280;4309;42.658;23.380;2023-02-22T02:39:09;94712.56;;;6.33;57.77
8543;BME280;4309;42.658;23.380;2023-02-22T02:39:49;94714.38;;;6.33;58.17
8543;BME280;4309;42.658;23.380;2023-02-22T02:40:28;94710.78;;;6.34;57.98
8543;BME280;4309;42.658;23.380;2023-02-22T02:41:07;94711.19;;;6.31;58.57
8543;BME280;4309;42.658;23.380;2023-02-22T02:41:44;94712.78;;;6.32;58.29
8543;BME280;4309;42.658;23.380;2023-02-22T02:42:20;94709.00;;;6.35;58.12
8543;BME280;4309;42.658;23.380;2023-02-22T02:43:00;94714.00;;;6.36;58.66
8543;BME280;4309;42.658;23.380;2023-02-22T02:43:40;94711.03;;;6.39;57.62
8543;BME280;4309;42.658;23.380;2023-02-22T02:44:16;94714.41;;;6.40;58.10
8543;BME280;4309;42.658;23.380;2023-02-22T02:44:57;94715.59;;;6.37;58.14
8543;BME280;4309;42.658;23.380;2023-02-22T02:45:37;94717.81;;;6.40;58.27
8543;BME280;4309;42.658;23.380;2023-02-22T02:46:46;94717.38;;;6.37;58.55
8543;BME280;4309;42.658;23.380;2023-02-22T02:47:24;94711.75;;;6.33;58.47
8543;BME280;4309;42.658;23.380;2023-02-22T02:48:00;94717.16;;;6.31;58.52
8543;BME280;4309;42.658;23.380;2023-02-22T02:48:34;94723.53;;;6.29;58.08
8543;BME280;4309;42.658;23.380;2023-02-22T02:49:11;94720.94;;;6.29;58.60
8543;BME280;4309;42.658;23.380;2023-02-22T02:49:50;94716.97;;;6.33;58.96
8543;BME280;4309;42.658;23.380;2023-02-22T02:50:24;94722.78;;;6.35;58.76
8543;BME280;4309;42.658;23.380;2023-02-22T02:51:00;94726.38;;;6.34;58.12
8543;BME280;4309;42.658;23.380;2023-02-22T02:51:37;94724.94;;;6.31;58.81
8543;BME280;4309;42.658;23.380;2023-02-22T02:52:11;94723.16;;;6.32;59.10
8543;BME280;4309;42.658;23.380;2023-02-22T02:52:45;94719.94;;;6.30;57.96
8543;BME280;4309;42.658;23.380;2023-02-22T02:53:20;94720.75;;;6.30;58.05
8543;BME280;4309;42.658;23.380;2023-02-22T02:53:53;94727.72;;;6.30;59.15
8543;BME280;4309;42.658;23.380;2023-02-22T02:54:26;94727.94;;;6.28;59.02
8543;BME280;4309;42.658;23.380;2023-02-22T02:54:59;94716.38;;;6.31;59.27
8543;BME280;4309;42.658;23.380;2023-02-22T02:55:35;94719.94;;;6.23;59.22
8543;BME280;4309;42.658;23.380;2023-02-22T02:56:06;94722.69;;;6.15;59.53
8543;BME280;4309;42.658;23.380;2023-02-22T02:56:40;94719.84;;;6.10;58.80
8543;BME280;4309;42.658;23.380;2023-02-22T02:57:13;94726.84;;;6.10;59.41
8543;BME280;4309;42.658;23.380;2023-02-22T02:57:45;94726.09;;;6.22;59.37
8543;BME280;4309;42.658;23.380;2023-02-22T02:58:21;94728.47;;;6.17;58.87
8543;BME280;4309;42.658;23.380;2023-02-22T02:58:54;94726.84;;;6.10;59.38
8543;BME280;4309;42.658;23.380;2023-02-22T02:59:28;94723.47;;;6.16;58.57
8543;BME280;4309;42.658;23.380;2023-02-22T03:00:01;94721.91;;;6.21;58.57
8543;BME280;4309;42.658;23.380;2023-02-22T03:00:36;94724.69;;;6.20;59.37
8543;BME280;4309;42.658;23.380;2023-02-22T03:01:12;94733.31;;;6.27;58.68
8543;BME280;4309;42.658;23.380;2023-02-22T03:01:58;94725.53;;;6.27;58.48
8543;BME280;4309;42.658;23.380;2023-02-22T03:02:42;94730.13;;;6.31;58.68
8543;BME280;4309;42.658;23.380;2023-02-22T03:03:31;94725.75;;;6.32;59.08
8543;BME280;4309;42.658;23.380;2023-02-22T03:04:25;94725.97;;;6.37;59.21
8543;BME280;4309;42.658;23.380;2023-02-22T03:05:13;94722.00;;;6.35;59.28
8543;BME280;4309;42.658;23.380;2023-02-22T03:06:09;94720.16;;;6.35;59.06
8543;BME280;4309;42.658;23.380;2023-02-22T03:07:15;94723.81;;;6.41;59.00
8543;BME280;4309;42.658;23.380;2023-02-22T03:07:55;94730.56;;;6.35;58.37
8543;BME280;4309;42.658;23.380;2023-02-22T03:08:37;94726.78;;;6.38;59.26
8543;BME280;4309;42.658;23.380;2023-02-22T03:09:23;94728.19;;;6.40;58.37
8543;BME280;4309;42.658;23.380;2023-02-22T03:10:13;94722.59;;;6.43;58.76
8543;BME280;4309;42.658;23.380;2023-02-22T03:10:55;94721.78;;;6.43;59.43
8543;BME280;4309;42.658;23.380;2023-02-22T03:11:38;94720.00;;;6.43;59.02
8543;BME280;4309;42.658;23.380;2023-02-22T03:12:30;94724.03;;;6.46;58.63
8543;BME280;4309;42.658;23.380;2023-02-22T03:13:09;94722.22;;;6.46;58.86
8543;BME280;4309;42.658;23.380;2023-02-22T03:13:50;94717.03;;;6.46;58.90
8543;BME280;4309;42.658;23.380;2023-02-22T03:14:31;94721.06;;;6.49;58.63
8543;BME280;4309;42.658;23.380;2023-02-22T03:15:13;94722.63;;;6.50;58.70
8543;BME280;4309;42.658;23.380;2023-02-22T03:15:57;94727.03;;;6.49;58.73
8543;BME280;4309;42.658;23.380;2023-02-22T03:16:37;94725.25;;;6.50;58.74
8543;BME280;4309;42.658;23.380;2023-02-22T03:17:21;94721.63;;;6.51;59.13
8543;BME280;4309;42.658;23.380;2023-02-22T03:18:01;94715.47;;;6.52;58.67
8543;BME280;4309;42.658;23.380;2023-02-22T03:18:45;94721.88;;;6.62;57.98
8543;BME280;4309;42.658;23.380;2023-02-22T03:19:21;94722.50;;;6.64;58.87
8543;BME280;4309;42.658;23.380;2023-02-22T03:20:01;94727.50;;;6.66;58.15
8543;BME280;4309;42.658;23.380;2023-02-22T03:20:41;94716.91;;;6.67;57.16
8543;BME280;4309;42.658;23.380;2023-02-22T03:21:24;94722.91;;;6.74;57.84
8543;BME280;4309;42.658;23.380;2023-02-22T03:22:01;94717.13;;;6.72;57.66